Time;durP1;ratioP1;P1;durP2;ratioP2;P2;SDS_P1;SDS_P2;PMS_P1;PMS_P2;Temp;Humidity;BMP_temperature;BMP_pressure;BME280_temperature;BME280_humidity;BME280_pressure;Samples;Min_cycle;Max_cycle;Signal;HPM_P1;HPM_P2
2021/12/13 05:01:40;;;;;;;26.33;15.20;;;6.50;99.90;;;;;;5438548;23;20999;-78
2021/12/13 05:04:08;;;;;;;23.27;14.03;;;6.50;99.90;;;;;;4954563;29;20463;-77
2021/12/13 05:06:38;;;;;;;27.30;14.53;;;6.50;99.90;;;;;;4954437;29;20457;-77
2021/12/13 05:09:08;;;;;;;29.83;15.10;;;6.50;99.90;;;;;;4954459;29;20547;-77
2021/12/13 05:11:37;;;;;;;26.03;14.30;;;6.50;99.90;;;;;;4954404;28;20899;-77
2021/12/13 05:14:07;;;;;;;27.80;14.93;;;6.50;99.90;;;;;;4955063;29;21043;-77
2021/12/13 05:16:43;;;;;;;26.17;15.07;;;6.50;99.90;;;;;;4954280;29;20727;-76
2021/12/13 05:19:13;;;;;;;28.47;16.13;;;6.50;99.90;;;;;;4954312;29;21164;-77
2021/12/13 05:21:43;;;;;;;27.23;15.13;;;6.60;99.90;;;;;;4954372;28;20567;-77
2021/12/13 05:24:14;;;;;;;27.70;15.57;;;6.60;99.90;;;;;;4954297;29;20536;-77
2021/12/13 05:26:50;;;;;;;27.00;15.17;;;6.60;99.90;;;;;;4954238;29;20532;-77
2021/12/13 05:29:27;;;;;;;23.63;14.10;;;6.60;99.90;;;;;;4954057;29;21012;-77
2021/12/13 05:31:58;;;;;;;21.03;13.00;;;6.60;99.90;;;;;;4954119;28;20915;-77
2021/12/13 05:34:32;;;;;;;27.00;13.60;;;6.60;99.90;;;;;;4954263;28;20547;-76
2021/12/13 05:37:02;;;;;;;26.17;12.70;;;6.60;99.90;;;;;;4954257;29;20945;-76
2021/12/13 05:39:30;;;;;;;24.13;12.93;;;6.60;99.90;;;;;;4953636;29;20502;-77
2021/12/13 05:42:00;;;;;;;23.70;12.50;;;6.60;99.90;;;;;;4954237;28;20559;-76
2021/12/13 05:44:31;;;;;;;21.80;11.97;;;6.60;99.90;;;;;;4954206;29;20984;-76
2021/12/13 05:47:02;;;;;;;23.33;11.70;;;6.50;99.90;;;;;;4953962;29;20972;-77
2021/12/13 05:49:32;;;;;;;24.00;13.27;;;6.50;99.90;;;;;;4953835;29;20484;-77
2021/12/13 05:52:07;;;;;;;23.17;12.67;;;6.50;99.90;;;;;;4954057;28;20465;-77
2021/12/13 05:54:36;;;;;;;21.63;11.80;;;6.50;99.90;;;;;;4954088;28;20448;-76
2021/12/13 05:57:09;;;;;;;20.20;11.77;;;6.50;99.90;;;;;;4953730;28;20463;-76
2021/12/13 05:59:41;;;;;;;23.27;12.23;;;6.50;99.90;;;;;;4957382;29;20528;-76
2021/12/13 06:02:13;;;;;;;23.83;11.23;;;6.50;99.90;;;;;;4954452;28;21000;-73
2021/12/13 06:04:45;;;;;;;19.70;11.10;;;6.50;99.90;;;;;;4953972;29;20488;-73
2021/12/13 06:07:19;;;;;;;23.90;12.20;;;6.50;99.90;;;;;;4953730;29;20485;-73
2021/12/13 06:10:00;;;;;;;21.20;11.30;;;6.50;99.90;;;;;;4952969;29;20528;-73
2021/12/13 06:12:35;;;;;;;21.30;12.10;;;6.50;99.90;;;;;;4953551;28;20483;-73
2021/12/13 06:15:20;;;;;;;28.10;12.40;;;6.60;99.90;;;;;;4953714;28;21020;-73
2021/12/13 06:17:55;;;;;;;19.53;11.40;;;6.60;99.90;;;;;;4953850;29;20476;-72
2021/12/13 06:20:27;;;;;;;25.77;13.03;;;6.50;99.90;;;;;;4953257;28;20940;-73
2021/12/13 06:23:08;;;;;;;30.47;14.13;;;6.50;99.90;;;;;;4953677;29;20547;-72
2021/12/13 06:25:36;;;;;;;34.93;16.43;;;6.50;99.90;;;;;;4953607;29;20453;-72
2021/12/13 06:28:04;;;;;;;62.53;22.90;;;6.50;99.90;;;;;;4953485;29;20547;-72
2021/12/13 06:30:33;;;;;;;61.20;22.93;;;6.40;99.90;;;;;;4953166;28;20453;-72
2021/12/13 06:33:06;;;;;;;48.53;19.57;;;6.40;99.90;;;;;;4953605;29;20543;-72
2021/12/13 06:35:46;;;;;;;45.23;18.43;;;6.50;99.90;;;;;;4953647;29;20463;-72
2021/12/13 06:38:37;;;;;;;34.40;15.90;;;6.40;99.90;;;;;;4953548;29;20535;-72
2021/12/13 06:41:13;;;;;;;33.50;15.23;;;6.40;99.90;;;;;;4953088;28;20583;-73
2021/12/13 06:43:44;;;;;;;26.10;12.30;;;6.40;99.90;;;;;;4953582;29;20540;-73
2021/12/13 06:46:28;;;;;;;29.27;12.57;;;6.50;99.90;;;;;;4953395;29;20449;-72
2021/12/13 06:48:59;;;;;;;27.17;12.53;;;6.40;99.90;;;;;;4953325;28;20535;-72
2021/12/13 06:51:39;;;;;;;29.13;13.03;;;6.40;99.90;;;;;;4953384;28;20505;-72
2021/12/13 06:54:09;;;;;;;26.83;13.47;;;6.50;99.90;;;;;;4953366;29;20453;-72
2021/12/13 06:56:37;;;;;;;20.83;11.80;;;6.50;99.90;;;;;;4953093;29;21013;-72
2021/12/13 06:59:07;;;;;;;25.97;12.70;;;6.50;99.90;;;;;;4953186;29;20459;-72
2021/12/13 07:01:39;;;;;;;26.67;12.67;;;6.50;99.90;;;;;;4953466;28;20564;-72
2021/12/13 07:04:11;;;;;;;33.17;12.73;;;6.50;99.90;;;;;;4952458;29;20543;-72
2021/12/13 07:06:39;;;;;;;31.43;13.70;;;6.50;99.90;;;;;;4953314;28;21200;-73
2021/12/13 07:09:11;;;;;;;27.60;13.47;;;6.50;99.90;;;;;;4956252;29;20568;-75
2021/12/13 07:11:45;;;;;;;32.47;14.77;;;6.50;99.90;;;;;;4956873;28;20564;-73
2021/12/13 07:14:14;;;;;;;26.70;12.63;;;6.50;99.90;;;;;;4956877;29;20883;-73
2021/12/13 07:16:46;;;;;;;29.60;13.13;;;6.50;99.90;;;;;;4956698;29;20461;-73
2021/12/13 07:19:19;;;;;;;27.83;12.93;;;6.50;99.90;;;;;;4956300;29;20960;-73
2021/12/13 07:21:56;;;;;;;29.50;12.30;;;6.50;99.90;;;;;;4956896;28;20584;-73
2021/12/13 07:24:33;;;;;;;32.43;13.97;;;6.50;99.90;;;;;;4956727;29;20550;-73
2021/12/13 07:27:05;;;;;;;34.97;13.10;;;6.50;99.90;;;;;;4956567;29;20874;-73
2021/12/13 07:29:39;;;;;;;29.47;12.63;;;6.50;99.90;;;;;;4956252;29;20524;-73
2021/12/13 07:32:11;;;;;;;24.50;12.10;;;6.50;99.90;;;;;;4956319;28;20551;-73
2021/12/13 07:34:59;;;;;;;25.67;11.10;;;6.50;99.90;;;;;;4956311;29;20544;-73
2021/12/13 07:37:51;;;;;;;28.70;13.30;;;6.60;99.90;;;;;;4956316;29;20527;-73
2021/12/13 07:40:42;;;;;;;31.83;13.80;;;6.60;99.90;;;;;;4941569;28;20499;-73
2021/12/13 07:43:18;;;;;;;31.23;13.20;;;6.60;99.90;;;;;;4951193;28;21032;-73
2021/12/13 07:45:56;;;;;;;31.50;13.63;;;6.60;99.90;;;;;;4956334;29;20887;-73
2021/12/13 07:48:26;;;;;;;34.70;17.20;;;6.60;99.90;;;;;;4956032;28;20555;-73
2021/12/13 07:51:05;;;;;;;28.03;13.63;;;6.60;99.90;;;;;;4955945;28;20845;-73
2021/12/13 07:53:44;;;;;;;34.43;14.57;;;6.60;99.90;;;;;;4956120;28;20503;-73
2021/12/13 07:56:13;;;;;;;31.20;14.53;;;6.60;99.90;;;;;;4955955;29;20469;-73
2021/12/13 07:58:43;;;;;;;41.13;16.70;;;6.60;99.90;;;;;;4956204;29;20548;-73
2021/12/13 08:01:17;;;;;;;28.63;13.80;;;6.60;99.90;;;;;;4955765;28;20513;-73
2021/12/13 08:03:51;;;;;;;32.77;16.00;;;6.70;99.90;;;;;;4956156;29;20824;-73
2021/12/13 08:06:19;;;;;;;28.53;14.57;;;6.70;99.90;;;;;;4955773;28;20882;-73
2021/12/13 08:08:52;;;;;;;24.87;13.47;;;6.70;99.90;;;;;;4955838;29;21028;-74
2021/12/13 08:11:20;;;;;;;29.33;13.27;;;6.70;99.90;;;;;;4956490;28;21054;-72
2021/12/13 08:13:58;;;;;;;32.37;15.33;;;6.70;99.90;;;;;;4959957;29;20457;-73
2021/12/13 08:16:35;;;;;;;35.20;16.40;;;6.70;99.90;;;;;;4960602;28;20529;-73
2021/12/13 08:19:17;;;;;;;30.17;14.47;;;6.70;99.90;;;;;;4955395;28;20520;-73
2021/12/13 08:21:50;;;;;;;31.47;14.90;;;6.70;99.90;;;;;;4955398;28;20531;-73
2021/12/13 08:24:27;;;;;;;37.63;15.80;;;6.70;99.90;;;;;;4955616;29;20962;-74
2021/12/13 08:26:59;;;;;;;33.67;15.93;;;6.70;99.90;;;;;;4955439;29;20459;-74
2021/12/13 08:29:29;;;;;;;32.70;15.67;;;6.70;99.90;;;;;;4955565;29;20544;-73
2021/12/13 08:31:58;;;;;;;33.63;16.53;;;6.70;99.90;;;;;;4955510;28;20479;-74
2021/12/13 08:34:29;;;;;;;41.03;16.67;;;6.70;99.90;;;;;;4955008;29;20535;-73
2021/12/13 08:36:59;;;;;;;36.97;15.60;;;6.70;99.90;;;;;;4955165;29;20887;-73
2021/12/13 08:39:33;;;;;;;29.57;14.47;;;6.70;99.90;;;;;;4955060;29;20481;-74
2021/12/13 08:42:09;;;;;;;31.33;13.57;;;6.70;99.90;;;;;;4955058;28;20584;-74
2021/12/13 08:44:39;;;;;;;30.10;14.37;;;6.80;99.90;;;;;;4954775;29;20485;-73
2021/12/13 08:47:09;;;;;;;24.70;13.90;;;6.90;99.90;;;;;;4955238;29;20577;-73
2021/12/13 08:49:42;;;;;;;21.40;11.23;;;6.90;99.90;;;;;;4938362;29;20460;-74
2021/12/13 08:52:20;;;;;;;32.27;14.60;;;6.90;99.90;;;;;;4935829;29;20560;-74
2021/12/13 08:54:58;;;;;;;26.63;13.90;;;7.00;99.90;;;;;;4935669;29;20489;-74
2021/12/13 08:57:48;;;;;;;24.00;13.33;;;6.90;99.90;;;;;;4935456;29;21020;-74
2021/12/13 09:00:30;;;;;;;23.77;12.67;;;7.00;99.90;;;;;;4932037;29;21115;-74
2021/12/13 09:03:01;;;;;;;19.20;12.30;;;7.00;99.90;;;;;;4935964;29;20469;-74
2021/12/13 09:05:32;;;;;;;26.53;15.50;;;7.10;99.90;;;;;;4949899;29;20547;-73
2021/12/13 09:08:08;;;;;;;23.67;13.80;;;7.10;99.90;;;;;;4955010;29;20529;-74
2021/12/13 09:10:46;;;;;;;24.73;13.37;;;7.10;99.90;;;;;;4954526;29;20468;-74
2021/12/13 09:13:16;;;;;;;22.33;12.40;;;7.20;99.90;;;;;;4954530;29;20491;-74
2021/12/13 09:15:43;;;;;;;28.87;14.00;;;7.20;99.90;;;;;;4954826;29;20513;-74
2021/12/13 09:18:19;;;;;;;30.53;14.43;;;7.20;99.90;;;;;;4954329;29;20453;-74
2021/12/13 09:20:52;;;;;;;21.87;13.83;;;7.20;99.90;;;;;;4954380;28;20528;-74
2021/12/13 09:23:26;;;;;;;23.40;12.23;;;7.20;99.90;;;;;;4954434;29;20488;-74
2021/12/13 09:26:02;;;;;;;25.30;12.43;;;7.30;99.90;;;;;;4941654;29;20481;-74
2021/12/13 09:28:32;;;;;;;21.60;12.87;;;7.20;99.90;;;;;;4935008;29;20457;-74
2021/12/13 09:31:02;;;;;;;26.23;14.70;;;7.30;99.90;;;;;;4944307;28;21020;-74
2021/12/13 09:33:32;;;;;;;20.00;13.30;;;7.30;99.90;;;;;;4954233;29;20543;-74
2021/12/13 09:36:01;;;;;;;18.77;11.63;;;7.40;99.90;;;;;;4954199;28;20965;-74
2021/12/13 09:38:36;;;;;;;17.30;11.30;;;7.40;99.90;;;;;;4954108;29;20952;-74
2021/12/13 09:41:10;;;;;;;21.93;12.23;;;7.30;99.90;;;;;;4953757;29;20551;-72
2021/12/13 09:43:42;;;;;;;20.80;12.83;;;7.30;99.90;;;;;;4954272;29;20484;-71
2021/12/13 09:46:11;;;;;;;24.13;12.73;;;7.30;99.90;;;;;;4953996;29;20449;-71
2021/12/13 09:48:42;;;;;;;19.90;12.63;;;7.30;99.90;;;;;;4954051;29;20516;-72
2021/12/13 09:51:14;;;;;;;21.50;12.57;;;7.40;99.90;;;;;;4939961;28;20498;-72
2021/12/13 09:53:43;;;;;;;19.07;12.37;;;7.40;99.90;;;;;;4934721;29;20512;-72
2021/12/13 09:56:14;;;;;;;22.57;13.00;;;7.40;99.90;;;;;;4934819;29;20553;-72
2021/12/13 09:58:44;;;;;;;24.13;13.40;;;7.40;99.90;;;;;;4934792;29;20450;-73
2021/12/13 10:01:14;;;;;;;20.53;12.73;;;7.40;99.90;;;;;;4953390;29;20528;-73
2021/12/13 10:03:51;;;;;;;21.73;11.40;;;7.40;99.90;;;;;;4953765;29;20465;-73
2021/12/13 10:06:20;;;;;;;20.97;12.87;;;7.40;99.90;;;;;;4953950;29;20960;-73
2021/12/13 10:08:57;;;;;;;19.83;11.93;;;7.40;99.90;;;;;;4953890;29;20543;-73
2021/12/13 10:11:26;;;;;;;19.53;12.17;;;7.50;99.90;;;;;;4953739;29;20551;-73
2021/12/13 10:13:54;;;;;;;22.30;12.57;;;7.50;99.90;;;;;;4953825;29;20878;-73
2021/12/13 10:16:25;;;;;;;19.37;11.80;;;7.50;99.90;;;;;;4953693;29;20489;-73
2021/12/13 10:18:54;;;;;;;22.67;13.03;;;7.50;99.90;;;;;;4953834;29;20515;-73
2021/12/13 10:21:24;;;;;;;23.20;13.00;;;7.50;99.90;;;;;;4953746;29;20528;-73
2021/12/13 10:23:56;;;;;;;19.30;12.57;;;7.50;99.90;;;;;;4953315;29;20484;-73
2021/12/13 10:26:25;;;;;;;19.30;13.27;;;7.60;99.90;;;;;;4953596;29;21020;-73
2021/12/13 10:28:55;;;;;;;24.60;12.40;;;7.60;99.90;;;;;;4953414;29;20452;-73
2021/12/13 10:31:28;;;;;;;17.13;12.17;;;7.60;99.90;;;;;;4953905;29;20477;-73
2021/12/13 10:33:57;;;;;;;21.67;13.17;;;7.70;99.90;;;;;;4945195;29;20453;-73
2021/12/13 10:36:28;;;;;;;20.30;11.97;;;7.70;99.90;;;;;;4953502;29;20453;-73
2021/12/13 10:38:59;;;;;;;18.63;12.50;;;7.70;99.90;;;;;;4953431;29;20532;-73
2021/12/13 10:41:30;;;;;;;20.17;10.97;;;7.70;99.90;;;;;;4953228;28;20583;-73
2021/12/13 10:44:00;;;;;;;18.07;12.30;;;7.80;99.90;;;;;;4956876;29;20540;-73
2021/12/13 10:46:31;;;;;;;22.57;12.63;;;7.80;99.90;;;;;;4957369;29;20499;-73
2021/12/13 10:49:02;;;;;;;19.47;12.23;;;7.80;99.90;;;;;;4951148;29;20511;-73
2021/12/13 10:51:31;;;;;;;15.87;11.10;;;7.90;99.90;;;;;;4957163;28;20552;-73
2021/12/13 10:54:05;;;;;;;18.50;11.63;;;7.90;99.90;;;;;;4956915;29;20539;-73
2021/12/13 10:56:35;;;;;;;18.80;11.23;;;7.90;99.90;;;;;;4957019;28;20539;-73
2021/12/13 10:59:07;;;;;;;18.97;11.07;;;7.90;99.90;;;;;;4956928;29;20543;-73
2021/12/13 11:01:37;;;;;;;20.07;10.67;;;8.00;99.90;;;;;;4956656;29;20579;-73
2021/12/13 11:04:14;;;;;;;15.77;10.07;;;8.00;99.90;;;;;;4942417;29;20486;-73
2021/12/13 11:06:43;;;;;;;16.67;9.93;;;8.10;99.90;;;;;;4957007;28;20460;-73
2021/12/13 11:09:16;;;;;;;17.57;9.83;;;8.20;99.90;;;;;;4956650;29;20539;-73
2021/12/13 11:11:50;;;;;;;15.80;11.00;;;8.20;99.90;;;;;;4956844;29;20468;-73
2021/12/13 11:14:20;;;;;;;15.67;9.50;;;8.20;99.90;;;;;;4957233;29;20551;-73
2021/12/13 11:16:51;;;;;;;15.80;10.00;;;8.20;99.90;;;;;;4956584;29;20511;-73
2021/12/13 11:19:23;;;;;;;15.73;10.07;;;8.20;99.90;;;;;;4956306;28;21035;-73
2021/12/13 11:21:53;;;;;;;13.10;8.63;;;8.20;99.90;;;;;;4956514;29;20592;-73
2021/12/13 11:24:25;;;;;;;14.30;9.20;;;8.30;99.90;;;;;;4956323;29;20459;-73
2021/12/13 11:26:55;;;;;;;13.30;9.53;;;8.30;99.90;;;;;;4956286;29;20460;-73
2021/12/13 11:29:22;;;;;;;13.77;9.20;;;8.40;99.90;;;;;;4955933;29;20539;-73
2021/12/13 11:32:25;;;;;;;17.90;13.23;;;8.40;99.90;;;;;;4956198;29;21079;-73
2021/12/13 11:35:22;;;;;;;12.40;9.10;;;8.40;99.90;;;;;;4956257;29;20488;-73
2021/12/13 11:38:06;;;;;;;12.53;8.50;;;8.40;99.90;;;;;;4955989;29;20560;-73
2021/12/13 11:40:58;;;;;;;7.97;6.80;;;8.40;99.90;;;;;;4955905;29;20555;-73
2021/12/13 11:43:50;;;;;;;10.03;6.70;;;8.40;99.90;;;;;;4956308;29;20528;-73
2021/12/13 11:46:46;;;;;;;9.23;7.60;;;8.30;99.90;;;;;;4956151;29;20548;-73
2021/12/13 11:49:31;;;;;;;13.37;8.70;;;8.30;99.90;;;;;;4956025;29;20876;-73
2021/12/13 11:52:15;;;;;;;8.23;6.43;;;8.30;99.90;;;;;;4956005;29;20468;-73
2021/12/13 11:55:29;;;;;;;11.27;7.10;;;8.30;99.90;;;;;;4954899;28;20524;-73
2021/12/13 11:58:38;;;;;;;10.93;7.93;;;8.30;99.90;;;;;;4955960;29;21012;-73
2021/12/13 12:01:47;;;;;;;9.90;6.90;;;8.30;99.90;;;;;;4955586;29;20588;-73
2021/12/13 12:04:47;;;;;;;13.50;7.30;;;8.30;99.90;;;;;;4955876;29;20460;-73
2021/12/13 12:07:40;;;;;;;9.20;6.90;;;8.30;99.90;;;;;;4933741;28;20536;-73
2021/12/13 12:10:32;;;;;;;10.87;8.20;;;8.30;99.90;;;;;;4955588;29;20551;-73
2021/12/13 12:13:09;;;;;;;10.90;8.27;;;8.30;99.90;;;;;;4955482;29;20473;-73
2021/12/13 12:15:39;;;;;;;12.03;9.00;;;8.30;99.90;;;;;;4955729;29;20543;-73
2021/12/13 12:18:11;;;;;;;11.80;8.37;;;8.40;99.90;;;;;;4955549;29;20461;-73
2021/12/13 12:20:41;;;;;;;9.20;7.40;;;8.50;99.90;;;;;;4955043;29;20928;-73
2021/12/13 12:23:10;;;;;;;14.57;7.53;;;8.50;99.90;;;;;;4955398;29;20528;-73
2021/12/13 12:25:40;;;;;;;16.03;9.70;;;8.40;99.90;;;;;;4954947;28;20496;-73
2021/12/13 12:28:13;;;;;;;12.37;7.40;;;8.30;99.90;;;;;;4955685;28;20488;-73
2021/12/13 12:30:43;;;;;;;10.37;6.87;;;8.30;99.90;;;;;;4955245;29;20509;-73
2021/12/13 12:33:19;;;;;;;7.40;5.80;;;8.30;99.90;;;;;;4955458;29;20535;-73
2021/12/13 12:35:50;;;;;;;9.07;7.10;;;8.30;99.90;;;;;;4955252;29;21066;-73
2021/12/13 12:38:34;;;;;;;7.30;5.73;;;8.40;99.90;;;;;;4955141;28;20463;-74
2021/12/13 12:41:42;;;;;;;5.17;4.60;;;8.40;99.90;;;;;;4954119;29;20555;-73
2021/12/13 12:44:15;;;;;;;5.40;4.30;;;8.50;99.90;;;;;;4952504;29;20551;-73
2021/12/13 12:46:43;;;;;;;7.27;5.50;;;8.50;99.90;;;;;;4954145;29;20499;-73
2021/12/13 12:49:16;;;;;;;11.00;5.27;;;8.60;99.90;;;;;;4953707;29;20540;-73
2021/12/13 12:51:44;;;;;;;7.77;5.83;;;8.60;99.90;;;;;;4953956;29;20965;-74
2021/12/13 12:54:13;;;;;;;6.70;5.97;;;8.60;99.90;;;;;;4954136;29;20504;-73
2021/12/13 12:56:45;;;;;;;5.00;4.50;;;8.50;99.90;;;;;;4953747;29;20540;-73
2021/12/13 12:59:17;;;;;;;5.90;5.13;;;8.60;99.90;;;;;;4953743;29;20459;-73
2021/12/13 13:01:47;;;;;;;8.77;5.67;;;8.60;99.90;;;;;;4953535;29;20532;-73
2021/12/13 13:04:21;;;;;;;6.00;5.30;;;8.70;99.90;;;;;;4954019;28;20531;-74
2021/12/13 13:06:55;;;;;;;7.10;5.27;;;8.70;99.90;;;;;;4953558;28;20524;-73
2021/12/13 13:09:23;;;;;;;9.00;6.27;;;8.70;99.90;;;;;;4953202;28;20543;-73
2021/12/13 13:11:52;;;;;;;7.93;5.60;;;8.70;99.90;;;;;;4953722;29;20548;-73
2021/12/13 13:14:27;;;;;;;7.20;5.53;;;8.80;99.90;;;;;;4953660;29;20488;-73
2021/12/13 13:16:57;;;;;;;7.17;5.97;;;8.80;99.90;;;;;;4953586;29;20458;-73
2021/12/13 13:19:30;;;;;;;6.83;5.50;;;8.80;99.90;;;;;;4953470;28;20531;-74
2021/12/13 13:22:01;;;;;;;10.83;6.13;;;8.80;99.90;;;;;;4952793;29;20509;-73
2021/12/13 13:24:28;;;;;;;7.20;5.60;;;8.80;99.90;;;;;;4948701;29;20493;-74
2021/12/13 13:26:56;;;;;;;6.07;5.13;;;8.80;99.90;;;;;;4943676;29;20521;-74
2021/12/13 13:29:23;;;;;;;6.40;4.93;;;8.80;99.90;;;;;;4944183;28;20532;-74
2021/12/13 13:31:54;;;;;;;7.37;5.90;;;8.90;99.90;;;;;;4945385;29;20497;-74
2021/12/13 13:34:25;;;;;;;9.93;6.87;;;8.90;99.90;;;;;;4944376;29;20495;-74
2021/12/13 13:36:55;;;;;;;11.23;7.20;;;8.90;99.90;;;;;;4937480;29;20989;-73
2021/12/13 13:39:26;;;;;;;8.87;6.43;;;8.90;99.90;;;;;;4934865;29;20548;-73
2021/12/13 13:41:58;;;;;;;21.17;11.70;;;8.90;99.90;;;;;;4935255;29;20593;-73
2021/12/13 13:44:28;;;;;;;13.30;9.90;;;8.90;99.90;;;;;;4934709;29;20539;-73
2021/12/13 13:47:05;;;;;;;15.13;9.00;;;8.90;99.90;;;;;;4934631;29;20485;-73
2021/12/13 13:49:32;;;;;;;10.07;7.40;;;8.90;99.90;;;;;;4934603;29;20538;-73
2021/12/13 13:52:11;;;;;;;14.10;9.40;;;8.90;99.90;;;;;;4934807;29;20533;-73
2021/12/13 13:54:38;;;;;;;11.83;9.90;;;8.80;99.90;;;;;;4934764;29;20532;-73
2021/12/13 13:57:14;;;;;;;11.57;9.30;;;8.90;99.90;;;;;;4934664;29;20611;-74
2021/12/13 13:59:43;;;;;;;11.00;8.97;;;8.90;99.90;;;;;;4934467;29;20465;-73
2021/12/13 14:02:12;;;;;;;12.57;9.03;;;8.80;99.90;;;;;;4934372;29;20544;-73
2021/12/13 14:04:43;;;;;;;13.23;9.20;;;8.90;99.90;;;;;;4934625;29;20500;-73
2021/12/13 14:07:14;;;;;;;13.73;10.03;;;8.80;99.90;;;;;;4934803;29;20513;-73
2021/12/13 14:09:45;;;;;;;14.60;9.60;;;8.90;99.90;;;;;;4934301;29;20541;-73
2021/12/13 14:12:22;;;;;;;15.27;11.83;;;8.90;99.90;;;;;;4934726;29;20553;-73
2021/12/13 14:14:52;;;;;;;15.63;9.20;;;8.90;99.90;;;;;;4934481;29;20970;-73
2021/12/13 14:17:32;;;;;;;14.87;11.00;;;8.90;99.90;;;;;;4935290;29;20548;-73
2021/12/13 14:20:15;;;;;;;16.30;11.37;;;8.90;99.90;;;;;;4938122;29;20536;-73
2021/12/13 14:22:44;;;;;;;16.10;12.67;;;8.90;99.90;;;;;;4938589;29;20587;-73
2021/12/13 14:25:11;;;;;;;18.60;14.90;;;8.90;99.90;;;;;;4938500;29;20548;-73
2021/12/13 14:27:39;;;;;;;15.23;11.20;;;8.80;99.90;;;;;;4938395;29;20486;-73
2021/12/13 14:30:13;;;;;;;16.30;10.13;;;8.90;99.90;;;;;;4938430;29;20461;-73
2021/12/13 14:32:40;;;;;;;13.53;10.47;;;8.90;99.90;;;;;;4938087;29;21009;-73
2021/12/13 14:35:16;;;;;;;14.10;10.10;;;8.80;99.90;;;;;;4938255;29;20548;-73
2021/12/13 14:37:45;;;;;;;14.70;9.77;;;8.90;99.90;;;;;;4938159;29;20997;-73
2021/12/13 14:40:13;;;;;;;11.83;8.93;;;8.90;99.90;;;;;;4937903;29;20545;-73
2021/12/13 14:42:40;;;;;;;15.13;10.93;;;8.90;99.90;;;;;;4937962;29;20849;-73
2021/12/13 14:45:11;;;;;;;16.53;11.43;;;8.90;99.90;;;;;;4938001;29;20548;-73
2021/12/13 14:47:42;;;;;;;15.70;11.60;;;9.00;99.90;;;;;;4938001;29;20693;-73
2021/12/13 14:50:15;;;;;;;15.57;10.53;;;9.00;99.90;;;;;;4937626;29;20532;-73
2021/12/13 14:52:47;;;;;;;11.90;8.90;;;9.00;99.90;;;;;;4938027;29;20591;-73
2021/12/13 14:55:18;;;;;;;12.27;8.87;;;9.00;99.90;;;;;;4938041;29;20541;-73
2021/12/13 14:57:54;;;;;;;12.57;9.07;;;9.00;99.90;;;;;;4937688;29;20493;-73
2021/12/13 15:00:25;;;;;;;16.27;12.50;;;9.10;99.90;;;;;;4937821;29;20537;-73
2021/12/13 15:02:58;;;;;;;15.83;12.43;;;9.10;99.90;;;;;;4937808;29;21241;-73
2021/12/13 15:05:28;;;;;;;12.30;9.57;;;9.10;99.90;;;;;;4937931;29;20481;-73
2021/12/13 15:07:58;;;;;;;13.93;9.87;;;9.10;99.90;;;;;;4937663;29;20468;-73
2021/12/13 15:10:33;;;;;;;11.70;9.27;;;9.10;99.90;;;;;;4937796;29;20544;-73
2021/12/13 15:13:02;;;;;;;11.00;8.93;;;9.00;99.90;;;;;;4937772;29;20496;-73
2021/12/13 15:15:37;;;;;;;13.07;8.70;;;9.10;99.90;;;;;;4937603;29;20457;-73
2021/12/13 15:18:09;;;;;;;9.20;7.63;;;9.00;99.90;;;;;;4937682;29;20878;-73
2021/12/13 15:20:40;;;;;;;9.70;7.40;;;8.90;99.90;;;;;;4936189;29;20963;-73
2021/12/13 15:23:17;;;;;;;10.70;8.17;;;9.00;99.90;;;;;;4937315;29;20505;-73
2021/12/13 15:25:47;;;;;;;11.50;8.20;;;8.90;99.90;;;;;;4937602;29;20545;-73
2021/12/13 15:28:20;;;;;;;9.20;6.90;;;9.00;99.90;;;;;;4937197;29;20485;-73
2021/12/13 15:30:48;;;;;;;11.07;8.07;;;8.90;99.90;;;;;;4937037;29;20473;-73
2021/12/13 15:33:15;;;;;;;19.50;11.50;;;8.90;99.90;;;;;;4937223;29;20896;-73
2021/12/13 15:35:46;;;;;;;24.10;15.67;;;9.00;99.90;;;;;;4937184;29;20537;-73
2021/12/13 15:38:18;;;;;;;16.10;11.70;;;9.00;99.90;;;;;;4937410;29;20541;-74
2021/12/13 15:40:49;;;;;;;11.10;7.50;;;9.00;99.90;;;;;;4936974;29;20521;-73
2021/12/13 15:43:25;;;;;;;13.70;9.50;;;8.90;99.90;;;;;;4937105;29;20551;-73
2021/12/13 15:45:55;;;;;;;17.33;10.63;;;8.90;99.90;;;;;;4937156;29;20982;-74
2021/12/13 15:51:11;;;;;;;10.30;8.67;;;8.90;99.90;;;;;;4936914;29;20675;-73
2021/12/13 15:53:45;;;;;;;8.07;6.40;;;8.90;99.90;;;;;;4936859;29;20998;-73
2021/12/13 15:56:15;;;;;;;12.97;9.07;;;8.90;99.90;;;;;;4936896;29;20469;-73
2021/12/13 15:58:45;;;;;;;7.77;6.20;;;8.90;99.90;;;;;;4936911;29;20461;-74
2021/12/13 16:01:18;;;;;;;7.10;5.80;;;8.90;99.90;;;;;;4936447;29;20516;-74
2021/12/13 16:03:47;;;;;;;6.20;5.60;;;8.80;99.90;;;;;;4937086;29;20608;-74
2021/12/13 16:06:17;;;;;;;6.93;6.23;;;8.90;99.90;;;;;;4937253;29;20521;-73
2021/12/13 16:08:53;;;;;;;6.53;4.87;;;8.90;99.90;;;;;;4936714;29;20452;-74
2021/12/13 16:11:30;;;;;;;6.90;5.00;;;8.90;99.90;;;;;;4936538;29;21097;-74
2021/12/13 16:14:03;;;;;;;7.37;5.53;;;8.90;99.90;;;;;;4936667;29;20541;-74
2021/12/13 16:16:31;;;;;;;6.57;5.70;;;8.90;99.90;;;;;;4936438;29;20544;-74
2021/12/13 16:18:58;;;;;;;9.73;6.80;;;8.90;99.90;;;;;;4935112;29;20486;-74
2021/12/13 16:21:30;;;;;;;8.23;6.77;;;8.90;99.90;;;;;;4935581;29;20686;-73
2021/12/13 16:24:05;;;;;;;11.50;8.60;;;8.90;99.90;;;;;;4935384;29;20946;-73
2021/12/13 16:26:36;;;;;;;11.00;7.90;;;8.90;99.90;;;;;;4935542;29;20536;-73
2021/12/13 16:29:08;;;;;;;8.63;6.63;;;8.80;99.90;;;;;;4935151;29;20532;-73
2021/12/13 16:31:35;;;;;;;10.30;7.40;;;8.90;99.90;;;;;;4935040;29;20573;-73
2021/12/13 16:34:09;;;;;;;9.40;6.63;;;8.90;99.90;;;;;;4935141;29;20462;-73
2021/12/13 16:36:39;;;;;;;10.73;7.10;;;8.90;99.90;;;;;;4935930;29;20521;-73
2021/12/13 16:39:12;;;;;;;8.83;6.90;;;8.80;99.90;;;;;;4936036;29;20533;-73
2021/12/13 16:41:41;;;;;;;11.70;7.53;;;8.70;99.90;;;;;;4935284;29;21057;-73
2021/12/13 16:44:11;;;;;;;8.47;6.30;;;8.70;99.90;;;;;;4935960;29;20592;-73
2021/12/13 16:46:39;;;;;;;8.33;6.90;;;8.70;99.90;;;;;;4935943;29;20495;-73
2021/12/13 16:49:10;;;;;;;12.30;8.57;;;8.60;99.90;;;;;;4935544;29;20479;-74
2021/12/13 16:51:40;;;;;;;18.50;11.97;;;8.60;99.90;;;;;;4935743;29;20524;-73
2021/12/13 16:54:11;;;;;;;14.13;11.10;;;8.60;99.90;;;;;;4935751;29;20540;-75
2021/12/13 16:56:39;;;;;;;12.70;8.50;;;8.60;99.90;;;;;;4935444;29;20485;-74
2021/12/13 16:59:08;;;;;;;11.33;8.00;;;8.60;99.90;;;;;;4935668;29;20492;-74
2021/12/13 17:01:37;;;;;;;9.23;7.80;;;8.60;99.90;;;;;;4935186;29;20489;-75
2021/12/13 17:04:09;;;;;;;12.73;8.80;;;8.60;99.90;;;;;;4934783;29;20612;-74
2021/12/13 17:06:45;;;;;;;11.87;8.53;;;8.50;99.90;;;;;;4934745;29;20498;-74
2021/12/13 17:09:14;;;;;;;13.43;8.07;;;8.50;99.90;;;;;;4934495;29;20907;-73
2021/12/13 17:11:42;;;;;;;14.93;10.43;;;8.50;99.90;;;;;;4934257;29;20998;-73
2021/12/13 17:14:19;;;;;;;13.00;9.40;;;8.40;99.90;;;;;;4993039;23;21007;-75
2021/12/13 17:16:53;;;;;;;19.07;10.70;;;8.50;99.90;;;;;;4973394;28;20542;-75
2021/12/13 17:19:22;;;;;;;17.97;11.47;;;8.50;99.90;;;;;;4972983;28;20538;-75
2021/12/13 17:21:52;;;;;;;19.10;12.80;;;8.40;99.90;;;;;;4972781;28;20460;-75
2021/12/13 17:24:25;;;;;;;22.20;14.27;;;8.40;99.90;;;;;;4961513;28;21011;-75
2021/12/13 17:26:54;;;;;;;20.47;12.50;;;8.40;99.90;;;;;;4954348;29;20838;-76
2021/12/13 17:29:25;;;;;;;20.27;13.30;;;8.30;99.90;;;;;;4954130;29;20492;-75
2021/12/13 17:32:01;;;;;;;17.50;10.93;;;8.30;99.90;;;;;;4954122;29;20473;-76
2021/12/13 17:34:41;;;;;;;15.10;10.93;;;8.30;99.90;;;;;;4954437;28;20551;-76
2021/12/13 17:37:16;;;;;;;27.23;14.90;;;8.30;99.90;;;;;;4954436;29;20479;-75
2021/12/13 17:39:47;;;;;;;25.10;16.40;;;8.30;99.90;;;;;;4954123;28;20531;-76
2021/12/13 17:42:18;;;;;;;17.83;12.63;;;8.30;99.90;;;;;;4953973;29;20543;-75
2021/12/13 17:44:47;;;;;;;19.77;13.90;;;8.30;99.90;;;;;;4953984;28;20528;-75
2021/12/13 17:47:28;;;;;;;20.53;11.70;;;8.30;99.90;;;;;;4954209;29;20481;-76
2021/12/13 17:49:55;;;;;;;20.60;13.27;;;8.30;99.90;;;;;;4953924;28;20531;-76
2021/12/13 17:52:22;;;;;;;21.13;12.97;;;8.30;99.90;;;;;;4953896;28;20461;-76
2021/12/13 17:55:00;;;;;;;22.70;11.83;;;8.30;99.90;;;;;;4953721;28;21003;-76
2021/12/13 17:57:35;;;;;;;21.60;13.93;;;8.30;99.90;;;;;;4953848;29;20452;-76
2021/12/13 18:00:31;;;;;;;18.80;13.20;;;8.30;99.90;;;;;;4950925;29;20952;-75
2021/12/13 18:03:17;;;;;;;23.67;13.20;;;8.30;99.90;;;;;;4953700;29;20583;-75
2021/12/13 18:05:46;;;;;;;21.70;14.40;;;8.30;99.90;;;;;;4954067;29;20457;-75
2021/12/13 18:08:13;;;;;;;21.23;13.30;;;8.20;99.90;;;;;;4953972;28;20489;-75
2021/12/13 18:10:42;;;;;;;19.70;13.13;;;8.20;99.90;;;;;;4951932;29;20544;-75
2021/12/13 18:13:14;;;;;;;21.27;12.60;;;8.20;99.90;;;;;;4944314;29;20478;-75
2021/12/13 18:15:44;;;;;;;24.03;14.43;;;8.20;99.90;;;;;;4944947;29;20449;-75
2021/12/13 18:18:18;;;;;;;23.67;14.37;;;8.20;99.90;;;;;;4944276;29;20482;-75